createdAt,value
2022-09-27T00:02:16.286Z,2.80
2022-09-27T00:17:20.647Z,4.80
2022-09-27T00:47:34.315Z,10.00
2022-09-27T01:02:41.731Z,10.47
2022-09-27T01:17:57.352Z,6.60
2022-09-27T01:33:19.654Z,4.47
2022-09-27T01:48:27.000Z,8.37
2022-09-27T02:03:38.908Z,6.50
2022-09-27T02:19:33.326Z,3.97
2022-09-27T02:34:41.389Z,5.30
2022-09-27T02:49:58.869Z,15.17
2022-09-27T03:05:25.222Z,6.00
2022-09-27T03:20:30.111Z,11.37
2022-09-27T03:35:45.179Z,4.17
2022-09-27T03:50:52.537Z,3.90
2022-09-27T04:05:57.502Z,6.27
2022-09-27T04:21:11.960Z,7.17
2022-09-27T04:36:27.553Z,4.00
2022-09-27T04:52:00.880Z,10.37
2022-09-27T05:07:05.661Z,3.77
2022-09-27T05:22:17.878Z,8.30
2022-09-27T05:37:23.069Z,8.80
2022-09-27T05:52:28.607Z,10.63
2022-09-27T06:07:33.490Z,7.13
2022-09-27T06:22:41.097Z,9.50
2022-09-27T06:37:46.289Z,11.80
2022-09-27T06:52:51.739Z,5.77
2022-09-27T07:07:58.556Z,8.10
2022-09-27T07:23:03.400Z,5.73
2022-09-27T07:38:10.044Z,3.40
2022-09-27T07:53:15.090Z,8.47
2022-09-27T08:08:28.593Z,2.47
2022-09-27T08:23:33.449Z,2.57
2022-09-27T08:38:59.118Z,14.37
2022-09-27T08:54:15.554Z,6.43
2022-09-27T09:09:30.235Z,10.37
2022-09-27T09:24:57.556Z,4.50
2022-09-27T09:40:09.166Z,5.47
2022-09-27T09:55:20.632Z,5.53
2022-09-27T10:10:26.505Z,3.00
2022-09-27T10:25:53.939Z,6.73
2022-09-27T10:41:28.929Z,8.93
2022-09-27T10:56:38.077Z,2.67
2022-09-27T11:11:45.203Z,4.43
2022-09-27T11:27:01.748Z,3.10
2022-09-27T11:42:25.508Z,4.03
2022-09-27T11:57:34.364Z,32.57
2022-09-27T12:12:45.022Z,2.80
2022-09-27T12:27:54.799Z,10.50
2022-09-27T12:43:05.878Z,15.40
2022-09-27T12:59:12.654Z,12.40
2022-09-27T13:14:21.308Z,11.40
2022-09-27T13:29:36.797Z,9.67
2022-09-27T13:44:53.904Z,13.23
2022-09-27T14:00:03.122Z,8.73
2022-09-27T14:15:32.725Z,9.27
2022-09-27T14:30:42.322Z,7.87
2022-09-27T14:46:00.249Z,16.47
2022-09-27T15:01:04.904Z,21.40
2022-09-27T15:16:16.292Z,12.80
2022-09-27T15:31:30.666Z,18.57
2022-09-27T15:46:42.071Z,8.90
2022-09-27T16:01:47.196Z,14.30
2022-09-27T16:16:53.749Z,19.50
2022-09-27T16:31:58.194Z,17.77
2022-09-27T16:47:02.593Z,22.10
2022-09-27T17:02:07.618Z,25.70
2022-09-27T17:17:12.049Z,25.70
2022-09-27T17:32:16.477Z,37.67
2022-09-27T17:47:38.563Z,29.30
2022-09-27T18:02:44.881Z,31.60
2022-09-27T18:17:55.802Z,35.10
2022-09-27T18:33:02.314Z,43.53
2022-09-27T19:03:15.287Z,36.73
2022-09-27T19:18:19.719Z,29.33
2022-09-27T19:33:24.723Z,18.97
2022-09-27T19:48:29.066Z,20.03
2022-09-27T20:18:43.004Z,15.60
2022-09-27T20:33:50.747Z,7.50
2022-09-27T20:48:57.200Z,6.87
2022-09-27T21:04:02.728Z,3.73
2022-09-27T21:19:07.069Z,2.77
2022-09-27T21:34:11.464Z,3.43
2022-09-27T21:49:15.900Z,2.97
2022-09-27T22:04:20.462Z,5.73
2022-09-27T22:19:24.851Z,4.67
2022-09-27T22:34:30.531Z,2.90
2022-09-27T22:49:34.846Z,3.73
2022-09-27T23:04:39.379Z,3.93
2022-09-27T23:19:43.746Z,2.77
2022-09-27T23:34:48.075Z,3.13
2022-09-27T23:49:52.518Z,5.43
